• Join FlightAware (Why Join?)
  • Login
  • US Flag 
09:23PM EDT


 

Airport Tracker/Info


-or-


 

Live Flight TrackerFlight Track Log ✈ TRS1858 ✈ 03-May-2012 ✈ KBWI - KFLL

Flight Track Log - Related Links

Times and Time Zones

All times are in EDT time to prevent confusion due to time zone crossing. See the TRS1858 flight status page for this flight to view local times or setup timezone preferences in your user account.

Time Position Orientation Groundspeed Altitude Reporting Facility
EDT Latitude Longitude Course Direction KTS MPH feet Rate Location/Type
06:51AM 39.1333 -76.6333 142° Southeast 185 213 1,800  Level Potomac TRACON
06:52AM 39.0833 -76.5833 150° Southeast 251 289 3,000 1,560 Climbing Potomac TRACON
06:53AM 39.0167 -76.5333 156° South 292 336 5,000 2,160 Climbing Potomac TRACON
06:55AM 38.8728 -76.4528 203° Southwest 300 345 9,300 1,980 Climbing Washington Center
06:56AM 38.7953 -76.4944 218° Southwest 292 336 10,800 1,380 Climbing Washington Center
06:57AM 38.7175 -76.5733 216° Southwest 314 361 12,200 1,620 Climbing Washington Center
06:58AM 38.6336 -76.6522 212° Southwest 351 404 14,100 1,860 Climbing Washington Center
06:59AM 38.5475 -76.7197 177° South 369 425 16,000 1,800 Climbing Washington Center
07:00AM 38.4350 -76.7128 174° South 369 425 17,800 1,740 Climbing Washington Center
07:01AM 38.3203 -76.6981 171° South 391 450 19,500 2,160 Climbing Washington Center
07:02AM 38.2142 -76.6778 174° South 409 471 22,100 1,740 Climbing Washington Center
07:03AM 38.0997 -76.6631 175° South 414 476 23,100 1,140 Climbing Washington Center
07:04AM 37.9767 -76.6481 175° South 426 490 24,400 1,380 Climbing Washington Center
07:05AM 37.8517 -76.6333 174° South 440 506 25,900 1,320 Climbing Washington Center
07:06AM 37.7267 -76.6158 174° South 451 519 27,100 1,320 Climbing Washington Center
07:07AM 37.5997 -76.5983 174° South 456 525 28,500 1,440 Climbing Washington Center
07:08AM 37.4747 -76.5811 177° South 462 532 30,000 1,200 Climbing Washington Center
07:09AM 37.3494 -76.5742 195° South 462 532 31,000 1,020 Climbing Washington Center
07:10AM 37.2261 -76.6169 197° South 457 526 32,100 1,080 Climbing Washington Center
07:11AM 37.1067 -76.6622 197° South 457 526 33,200 900 Climbing Washington Center
07:12AM 36.9894 -76.7075 197° South 452 520 34,000 360 Climbing Washington Center
07:13AM 36.8703 -76.7525 197° South 447 514 34,000  Level Washington Center
07:14AM 36.7550 -76.7975 197° South 447 514 34,000  Level Washington Center
07:15AM 36.6356 -76.8422 197° South 447 514 34,000  Level Washington Center
07:16AM 36.5164 -76.8867 198° South 447 514 34,000  Level Washington Center
07:17AM 36.4011 -76.9339 196° South 441 507 34,000  Level Washington Center
07:18AM 36.2817 -76.9756 197° South 441 507 34,000  Level Washington Center
07:19AM 36.1642 -77.0200 197° South 446 513 34,000  Level Washington Center
07:20AM 36.0469 -77.0642 196° South 446 513 34,000  Level Washington Center
07:21AM 35.9147 -77.1103 197° South 446 513 34,000  Level Washington Center
07:22AM 35.8017 -77.1517 197° South 432 497 34,000  Level Washington Center
07:23AM 35.6822 -77.1953 196° South 437 503 34,000  Level Washington Center
07:24AM 35.5628 -77.2364 196° South 447 514 34,000  Level Washington Center
07:25AM 35.4411 -77.2797 197° South 447 514 34,000  Level Washington Center
07:26AM 35.3339 -77.3208 197° South 447 514 34,000  Level Washington Center
07:27AM 35.2167 -77.3642 196° South 453 521 34,000  Level Washington Center
07:28AM 35.0928 -77.4069 196° South 458 527 34,000  Level Washington Center
07:29AM 34.9733 -77.4500 196° South 458 527 34,000  Level Washington Center
07:30AM 34.8514 -77.4928 199° South 458 527 34,000  Level Washington Center
07:31AM 34.7233 -77.5453 195° South 458 527 34,000  Level Washington Center
07:32AM 34.5997 -77.5853 196° South 458 527 34,000  Level Washington Center
07:33AM 34.4925 -77.6231 196° South 458 527 34,000  Level Washington Center
07:34AM 34.3731 -77.6653 195° South 458 527 34,000  Level Washington Center
07:36AM 34.1339 -77.7447 196° South 475 547 34,000  Level Jacksonville Center
07:37AM 34.0128 -77.7869 197° South 455 524 34,000  Level Jacksonville Center
07:38AM 33.8914 -77.8317 195° South 455 524 34,000  Level Jacksonville Center
07:39AM 33.7719 -77.8711 197° South 450 518 34,000  Level Jacksonville Center
07:40AM 33.6361 -77.9211 196° South 455 524 34,000  Level Jacksonville Center
07:41AM 33.5169 -77.9628 197° South 455 524 34,000  Level Jacksonville Center
07:42AM 33.3933 -78.0069 196° South 455 524 34,000  Level Jacksonville Center
07:43AM 33.2719 -78.0483 197° South 455 524 34,000  Level Jacksonville Center
07:44AM 33.1483 -78.0922 196° South 455 524 34,000  Level Jacksonville Center
07:45AM 33.0267 -78.1333 196° South 455 524 34,000  Level Jacksonville Center
07:46AM 32.9031 -78.1744 196° South 455 524 34,000  Level Jacksonville Center
07:47AM 32.7775 -78.2181 197° South 455 524 34,000  Level Jacksonville Center
07:48AM 32.6539 -78.2617 196° South 455 524 34,000  Level Jacksonville Center
07:49AM 32.5322 -78.3022 195° South 460 529 34,000  Level Jacksonville Center
07:50AM 32.4064 -78.3431 195° South 460 529 34,000  Level Jacksonville Center
07:51AM 32.2969 -78.3781 196° South 465 535 34,000  Level Jacksonville Center
07:52AM 32.1711 -78.4211 196° South 465 535 34,000  Level Jacksonville Center
07:53AM 32.0453 -78.4639 195° South 470 541 34,000  Level Jacksonville Center
07:54AM 31.9214 -78.5042 196° South 470 541 34,000  Level Jacksonville Center
07:55AM 31.7956 -78.5467 195° South 470 541 34,000  Level Jacksonville Center
07:56AM 31.6675 -78.5869 195° South 475 547 34,000  Level Jacksonville Center
07:57AM 31.5436 -78.6267 196° South 469 540 34,000  Level Jacksonville Center
07:58AM 31.4197 -78.6689 195° South 469 540 34,000  Level Jacksonville Center
07:59AM 31.2917 -78.7089 197° South 469 540 34,000  Level Jacksonville Center
08:00AM 31.1658 -78.7533 195° South 475 547 34,000  Level Jacksonville Center
08:01AM 31.0150 -78.8011 195° South 492 566 34,000  Level Jacksonville Center
08:02AM 30.8847 -78.8406 195° South 492 566 34,000  Level Jacksonville Center
08:03AM 30.7608 -78.8797 197° South 474 545 34,000  Level Jacksonville Center
08:04AM 30.6328 -78.9239 195° South 492 566 34,000  Level Jacksonville Center
08:05AM 30.5108 -78.9619 195° South 476 548 34,000  Level Miami Center
08:06AM 30.3831 -79.0003 193° South 476 548 34,000  Level Miami Center
08:07AM 30.2553 -79.0336 193° South 484 557 34,000  Level Miami Center
08:08AM 30.1256 -79.0669 196° South 484 557 34,000  Level Miami Center
08:09AM 30.0000 -79.1075 191° South 490 564 34,000  Level Miami Center
08:10AM 29.8639 -79.1381 193° South 481 554 34,000  Level Miami Center
08:11AM 29.7342 -79.1714 191° South 481 554 34,000  Level Miami Center
08:12AM 29.5961 -79.2017 194° South 494 568 34,000  Level Miami Center
08:13AM 29.4639 -79.2394 193° South 489 563 34,000  Level Miami Center
08:14AM 29.3194 -79.2767 190° South 489 563 34,000  Level Miami Center
08:15AM 29.1833 -79.3047 195° South 495 570 34,000  Level Miami Center
08:16AM 29.0575 -79.3422 192° South 490 564 34,000  Level Miami Center
08:17AM 28.9256 -79.3747 192° South 485 558 34,000  Level Miami Center
08:18AM 28.7936 -79.4072 192° South 491 565 34,000  Level Miami Center
08:19AM 28.6614 -79.4397 192° South 486 559 34,000  Level Miami Center
08:20AM 28.5314 -79.4722 192° South 486 559 34,000  Level Miami Center
08:21AM 28.4014 -79.5047 193° South 486 559 34,000  Level Miami Center
08:22AM 28.2714 -79.5392 192° South 481 554 34,000  Level Miami Center
08:23AM 28.1414 -79.5717 192° South 481 554 34,000  Level Miami Center
08:24AM 28.0114 -79.6036 192° South 481 554 34,000 -300 Level Miami Center
08:25AM 27.8792 -79.6358 192° South 481 554 33,500 -840 Descending Miami Center
08:26AM 27.7492 -79.6678 193° South 481 554 32,400 -1,920 Descending Miami Center
08:27AM 27.6294 -79.7000 191° South 486 559 29,700 -2,520 Descending Miami Center
08:28AM 27.4953 -79.7294 192° South 493 567 27,400 -2,400 Descending Miami Center
08:29AM 27.3611 -79.7611 178° South 461 531 24,900 -1,920 Descending Miami Center
08:30AM 27.2422 -79.7558 165° South 427 491 23,600 -1,860 Descending Miami Center
08:31AM 27.1383 -79.7253 164° South 427 491 21,200 -2,400 Descending Miami Center
08:32AM 27.0344 -79.6925 166° South 404 465 18,900 -2,460 Descending Miami Center
08:33AM 26.9203 -79.6594 178° South 384 442 16,300 -1,980 Descending Miami Center
08:34AM 26.8181 -79.6547 204° Southwest 370 426 15,000 -1,500 Descending Miami Center
08:35AM 26.7233 -79.7011 201° Southwest 362 417 13,300 -1,920 Descending Miami Center
08:36AM 26.6622 -79.7275 201° Southwest 359 413 11,900 -2,160 Descending Miami Center
08:37AM 26.6011 -79.7539 208° Southwest 351 404 10,400 -2,040 Descending Miami Center
08:37AM 26.5483 -79.7853 201° Southwest 357 411 9,200 -1,260 Descending Miami Center
08:38AM 26.4703 -79.8181 204° Southwest 313 360 8,400 -600 Descending Miami Center
08:39AM 26.3986 -79.8533 215° Southwest 294 338 8,000 -240 Descending Miami Center
08:40AM 26.3392 -79.9006 221° Southwest 289 333 8,000 -300 Level Miami Center
08:41AM 26.2708 -79.9661 221° Southwest 295 339 7,400 -660 Descending Miami Center
08:42AM 26.2367 -79.9997 224° Southwest 290 334 7,000 -300 Descending Miami Center
08:43AM 26.1769 -80.0631 252° West 288 331 7,000 -60 Level Miami Center
08:44AM 26.1586 -80.1250 260° West 260 299 6,900 -660 Descending Miami Center
08:44AM 26.1514 -80.1711 269° West 264 304 6,100 -1,380 Descending Miami Center
08:45AM 26.1497 -80.2475 261° West 246 283 4,700 -1,140 Descending Miami Center
08:47AM 26.1347 -80.3511 177° South 226 260 3,300 -1,080 Descending Miami Center
08:48AM 26.0764 -80.3472 93° East 205 236 2,000 -660 Descending Miami Center
08:49AM 26.0736 -80.2892 89° East 162 186 2,000 -360 Level Miami Center
08:50AM 26.0744 -80.2453 88° East 160 184 1,300 -780 Descending Miami Center
08:51AM 26.0756 -80.2036 88° East 127 146 600 -720 Descending Miami Center